createdAt,value
2019-04-21T00:00:20.957Z,16.52
2019-04-21T00:01:03.827Z,16.54
2019-04-21T00:01:44.099Z,16.52
2019-04-21T00:02:29.781Z,16.59
2019-04-21T00:03:09.773Z,16.57
2019-04-21T00:03:50.018Z,16.6
2019-04-21T00:04:37.889Z,16.52
2019-04-21T00:05:24.350Z,16.5
2019-04-21T00:06:02.795Z,16.44
2019-04-21T00:06:47.859Z,16.44
2019-04-21T00:07:24.845Z,16.45
2019-04-21T00:08:07.311Z,16.5
2019-04-21T00:09:02.153Z,16.48
2019-04-21T00:10:05.651Z,16.33
2019-04-21T00:10:47.761Z,16.44
2019-04-21T00:11:27.949Z,16.41
2019-04-21T00:12:07.097Z,16.34
2019-04-21T00:12:45.740Z,16.4
2019-04-21T00:13:23.232Z,16.36
2019-04-21T00:14:00.826Z,16.36
2019-04-21T00:14:43.294Z,16.32
2019-04-21T00:15:20.086Z,16.29
2019-04-21T00:15:54.820Z,16.26
2019-04-21T00:16:38.988Z,16.18
2019-04-21T00:17:16.112Z,16.18
2019-04-21T00:17:56.978Z,16.23
2019-04-21T00:18:40.550Z,16.22
2019-04-21T00:19:17.706Z,16.18
2019-04-21T00:20:05.400Z,16.18
2019-04-21T00:20:41.205Z,16.14
2019-04-21T00:21:23.132Z,16.13
2019-04-21T00:22:05.624Z,16.08
2019-04-21T00:22:47.567Z,16.17
2019-04-21T00:23:32.638Z,15.99
2019-04-21T00:24:08.480Z,15.96
2019-04-21T00:24:48.645Z,15.93
2019-04-21T00:25:30.818Z,15.85
2019-04-21T00:26:07.441Z,15.74
2019-04-21T00:26:57.206Z,15.66
2019-04-21T00:27:33.208Z,15.53
2019-04-21T00:28:13.834Z,15.46
2019-04-21T00:29:03.322Z,15.33
2019-04-21T00:29:42.370Z,15.27
2019-04-21T00:30:21.204Z,15.23
2019-04-21T00:30:55.370Z,15.15
2019-04-21T00:31:33.467Z,15.09
2019-04-21T00:32:13.463Z,15.05
2019-04-21T00:32:52.030Z,15.01
2019-04-21T00:33:26.605Z,14.94
2019-04-21T00:34:02.482Z,14.9
2019-04-21T00:34:48.329Z,14.87
2019-04-21T00:35:25.523Z,14.8
2019-04-21T00:36:10.096Z,14.82
2019-04-21T00:36:53.306Z,14.78
2019-04-21T00:37:33.125Z,14.83
2019-04-21T00:38:24.322Z,14.75
2019-04-21T00:39:14.186Z,14.79
2019-04-21T00:40:27.031Z,14.72
2019-04-21T00:41:05.289Z,14.72
2019-04-21T00:41:48.240Z,14.72
2019-04-21T00:42:22.570Z,14.72
2019-04-21T00:43:03.352Z,14.66
2019-04-21T00:43:41.011Z,14.78
2019-04-21T00:44:17.195Z,14.66
2019-04-21T00:45:01.660Z,14.8
2019-04-21T00:45:41.675Z,14.66
2019-04-21T00:46:19.488Z,14.67
2019-04-21T00:47:01.687Z,14.67
2019-04-21T00:47:45.446Z,14.61
2019-04-21T00:48:28.755Z,14.69
2019-04-21T00:49:05.441Z,14.67
2019-04-21T00:49:49.250Z,14.72
2019-04-21T00:50:31.225Z,14.72
2019-04-21T00:51:24.793Z,14.64
2019-04-21T00:52:01.815Z,14.63
2019-04-21T00:52:44.994Z,14.59
2019-04-21T00:53:10.174Z,14.6
2019-04-21T00:53:57.732Z,14.61
2019-04-21T00:54:41.396Z,14.53
2019-04-21T00:55:26.522Z,14.44
2019-04-21T00:55:55.124Z,14.41
2019-04-21T00:56:39.310Z,14.44
2019-04-21T00:57:16.204Z,14.35
2019-04-21T00:58:38.494Z,14.38
2019-04-21T00:59:19.122Z,14.42
2019-04-21T00:59:58.973Z,14.41
2019-04-21T01:00:38.308Z,14.34
2019-04-21T01:01:14.636Z,14.34
2019-04-21T01:01:53.664Z,14.42
2019-04-21T01:02:44.335Z,14.35
2019-04-21T01:03:19.999Z,14.31
2019-04-21T01:04:02.033Z,14.3
2019-04-21T01:04:42.426Z,14.26
2019-04-21T01:05:20.763Z,14.36
2019-04-21T01:06:02.984Z,14.31
2019-04-21T01:06:41.415Z,14.27
2019-04-21T01:07:19.172Z,14.26
2019-04-21T01:07:57.599Z,14.2
2019-04-21T01:08:40.884Z,14.12
2019-04-21T01:09:19.290Z,14.09
2019-04-21T01:09:52.403Z,14.02
2019-04-21T01:10:34.545Z,13.96
2019-04-21T01:11:23.508Z,13.91
2019-04-21T01:12:01.036Z,13.88
2019-04-21T01:12:47.510Z,13.86
2019-04-21T01:13:26.027Z,13.87
2019-04-21T01:14:03.922Z,13.86
2019-04-21T01:14:48.271Z,13.86
2019-04-21T01:15:30.426Z,13.8
2019-04-21T01:16:05.395Z,13.68
2019-04-21T01:16:51.197Z,13.72
2019-04-21T01:17:27.204Z,13.8
2019-04-21T01:18:08.785Z,13.65
2019-04-21T01:18:49.113Z,13.71
2019-04-21T01:19:24.933Z,13.73
2019-04-21T01:20:01.013Z,13.72
2019-04-21T01:20:28.724Z,13.72
2019-04-21T01:21:14.179Z,13.69
2019-04-21T01:21:49.534Z,13.68
2019-04-21T01:22:29.932Z,13.69
2019-04-21T01:23:10.570Z,13.61
2019-04-21T01:23:50.864Z,13.57
2019-04-21T01:24:36.037Z,13.68
2019-04-21T01:25:19.754Z,13.57
2019-04-21T01:26:06.170Z,13.51
2019-04-21T01:26:43.597Z,13.59
2019-04-21T01:27:22.147Z,13.59
2019-04-21T01:28:09.756Z,13.46
2019-04-21T01:28:49.311Z,13.59
2019-04-21T01:29:36.726Z,13.61
2019-04-21T01:30:16.164Z,13.71
2019-04-21T01:30:56.663Z,13.68
2019-04-21T01:31:32.557Z,13.75
2019-04-21T01:32:17.613Z,13.76
2019-04-21T01:32:58.875Z,13.86
2019-04-21T01:33:37.832Z,13.93
2019-04-21T01:34:14.604Z,14.01
2019-04-21T01:34:57.536Z,13.94
2019-04-21T01:35:39.225Z,13.96
2019-04-21T01:36:13.885Z,13.98
2019-04-21T01:36:53.982Z,13.99
2019-04-21T01:37:43.640Z,14.05
2019-04-21T01:38:21.455Z,14.12
2019-04-21T01:39:00.402Z,14.13
2019-04-21T01:39:40.570Z,14.16
2019-04-21T01:41:06.814Z,14.11
2019-04-21T01:41:44.615Z,14.17
2019-04-21T01:42:20.869Z,14.13
2019-04-21T01:43:02.424Z,14.08
2019-04-21T01:43:39.296Z,14.19
2019-04-21T01:44:29.449Z,14.01
2019-04-21T01:45:03.821Z,13.94
2019-04-21T01:45:43.307Z,14.01
2019-04-21T01:46:19.036Z,13.98
2019-04-21T01:46:58.076Z,13.98
2019-04-21T01:47:40.369Z,13.94
2019-04-21T01:48:19.386Z,13.96
2019-04-21T01:49:01.407Z,13.98
2019-04-21T01:49:36.651Z,13.99
2019-04-21T01:50:24.216Z,13.96
2019-04-21T01:51:04.955Z,13.98
2019-04-21T01:51:50.439Z,13.9
2019-04-21T01:52:38.099Z,13.75
2019-04-21T01:53:10.724Z,13.84
2019-04-21T01:53:48.006Z,13.79
2019-04-21T01:54:28.358Z,13.66
2019-04-21T01:55:12.167Z,13.68
2019-04-21T01:55:48.019Z,13.61
2019-04-21T01:56:29.978Z,13.68
2019-04-21T01:57:07.138Z,13.55
2019-04-21T01:57:49.157Z,13.44
2019-04-21T01:58:25.338Z,13.5
2019-04-21T01:59:01.242Z,13.47
2019-04-21T01:59:45.599Z,13.48
2019-04-21T02:00:30.727Z,13.48
2019-04-21T02:01:08.374Z,13.55
2019-04-21T02:01:52.039Z,13.54
2019-04-21T02:02:34.632Z,13.57
2019-04-21T02:03:33.831Z,13.61
2019-04-21T02:03:55.390Z,13.51
2019-04-21T02:04:41.034Z,13.48
2019-04-21T02:05:16.796Z,13.46
2019-04-21T02:06:04.249Z,13.44
2019-04-21T02:06:38.641Z,13.47
2019-04-21T02:07:14.460Z,13.38
2019-04-21T02:07:54.508Z,13.31
2019-04-21T02:08:35.839Z,13.41
2019-04-21T02:09:14.533Z,13.38
2019-04-21T02:10:04.625Z,13.41
2019-04-21T02:10:45.942Z,13.28
2019-04-21T02:11:22.911Z,13.27
2019-04-21T02:11:59.845Z,13.24
2019-04-21T02:12:37.704Z,13.21
2019-04-21T02:13:16.765Z,13.24
2019-04-21T02:14:30.915Z,13.31
2019-04-21T02:14:50.128Z,13.35
2019-04-21T02:15:23.308Z,13.41
2019-04-21T02:16:06.386Z,13.35
2019-04-21T02:16:40.281Z,13.32
2019-04-21T02:17:21.584Z,13.35
2019-04-21T02:18:05.882Z,13.31
2019-04-21T02:18:43.407Z,13.38
2019-04-21T02:19:28.327Z,13.36
2019-04-21T02:19:59.908Z,13.32
2019-04-21T02:20:36.361Z,13.22
2019-04-21T02:21:21.366Z,13.21
2019-04-21T02:21:58.990Z,13.29
2019-04-21T02:23:34.052Z,13.32
2019-04-21T02:24:11.252Z,13.27
2019-04-21T02:25:08.105Z,13.24
2019-04-21T02:25:31.251Z,13.24
2019-04-21T02:26:09.123Z,13.17
2019-04-21T02:26:52.562Z,13.19
2019-04-21T02:27:29.431Z,13.21
2019-04-21T02:28:11.209Z,13.21
2019-04-21T02:28:55.131Z,13.12
2019-04-21T02:29:32.605Z,13.06
2019-04-21T02:30:18.092Z,13.12
2019-04-21T02:31:04.634Z,13.09
2019-04-21T02:31:44.100Z,13.07
2019-04-21T02:33:08.378Z,13.03
2019-04-21T02:33:45.500Z,12.92
2019-04-21T02:34:23.326Z,12.91
2019-04-21T02:35:49.327Z,12.95
2019-04-21T02:37:26.834Z,12.85
2019-04-21T02:37:53.335Z,12.87
2019-04-21T02:38:29.517Z,12.81
2019-04-21T02:39:17.826Z,12.77
2019-04-21T02:39:48.698Z,12.77
2019-04-21T02:40:29.247Z,12.77
2019-04-21T02:41:21.113Z,12.84
2019-04-21T02:42:26.179Z,12.7
2019-04-21T02:43:10.958Z,12.56
2019-04-21T02:43:51.880Z,12.59
2019-04-21T02:45:07.980Z,12.69
2019-04-21T02:46:37.169Z,12.59
2019-04-21T02:47:03.378Z,12.46
2019-04-21T02:47:53.166Z,12.44
2019-04-21T02:48:37.978Z,12.46
2019-04-21T02:49:34.223Z,12.43
2019-04-21T02:49:59.317Z,12.36
2019-04-21T02:52:00.918Z,12.48
2019-04-21T02:52:52.117Z,12.52
2019-04-21T02:53:18.184Z,12.51
2019-04-21T02:54:47.321Z,12.54
2019-04-21T02:55:13.140Z,12.58
2019-04-21T02:57:30.633Z,12.54
2019-04-21T02:58:41.388Z,12.44
2019-04-21T02:59:32.829Z,12.43
2019-04-21T03:00:13.463Z,12.41
2019-04-21T03:02:13.603Z,12.44
2019-04-21T03:02:46.616Z,12.37
2019-04-21T03:03:58.456Z,12.48
2019-04-21T03:04:41.964Z,12.44
2019-04-21T03:05:27.700Z,12.43
2019-04-21T03:06:15.131Z,12.48
2019-04-21T03:06:50.084Z,12.43
2019-04-21T03:07:29.818Z,12.43
2019-04-21T03:08:49.471Z,12.33
2019-04-21T03:09:23.830Z,12.38
2019-04-21T03:10:10.527Z,12.34
2019-04-21T03:10:52.766Z,12.36
2019-04-21T03:11:16.810Z,12.25
2019-04-21T03:12:50.629Z,12.13
2019-04-21T03:13:28.874Z,12.13
2019-04-21T03:14:15.716Z,12.11
2019-04-21T03:14:55.401Z,12.15
2019-04-21T03:15:28.735Z,12.15
2019-04-21T03:17:04.900Z,12.07
2019-04-21T03:18:56.338Z,11.94
2019-04-21T03:19:44.657Z,11.9
2019-04-21T03:20:58.708Z,11.85
2019-04-21T03:21:28.191Z,11.85
2019-04-21T03:22:52.902Z,11.78
2019-04-21T03:23:45.759Z,11.81
2019-04-21T03:25:21.092Z,11.93
2019-04-21T03:25:40.756Z,11.93
2019-04-21T03:26:19.219Z,11.98
2019-04-21T03:27:16.924Z,11.97
2019-04-21T03:27:48.616Z,11.93
2019-04-21T03:28:22.004Z,11.98
2019-04-21T03:29:02.177Z,11.96
2019-04-21T03:29:34.627Z,11.98
2019-04-21T03:31:17.864Z,11.87
2019-04-21T03:32:13.526Z,11.88
2019-04-21T03:32:44.636Z,11.79
2019-04-21T03:35:13.256Z,11.94
2019-04-21T03:36:39.653Z,11.93
2019-04-21T03:37:06.692Z,11.9
2019-04-21T03:37:36.295Z,11.98
2019-04-21T03:38:36.508Z,11.98
2019-04-21T03:39:00.613Z,12.04
2019-04-21T03:39:44.725Z,11.93
2019-04-21T03:40:18.405Z,11.9
2019-04-21T03:41:03.842Z,11.9
2019-04-21T03:41:47.505Z,11.85
2019-04-21T03:42:33.519Z,11.79
2019-04-21T03:43:04.061Z,11.77
2019-04-21T03:43:42.037Z,11.74
2019-04-21T03:44:29.914Z,11.78
2019-04-21T03:45:23.120Z,11.81
2019-04-21T03:45:48.349Z,11.81
2019-04-21T03:46:40.849Z,11.88
2019-04-21T03:47:22.606Z,11.93
2019-04-21T03:47:52.133Z,11.94
2019-04-21T03:48:40.392Z,11.98
2019-04-21T03:49:27.170Z,11.9
2019-04-21T03:50:04.448Z,11.87
2019-04-21T03:50:32.934Z,11.87
2019-04-21T03:51:20.082Z,11.78
2019-04-21T03:52:02.803Z,11.72
2019-04-21T03:53:18.296Z,11.72
2019-04-21T03:53:59.481Z,11.64
2019-04-21T03:54:41.177Z,11.63
2019-04-21T03:57:31.134Z,11.51
2019-04-21T03:58:14.648Z,11.56
2019-04-21T03:59:15.865Z,11.46
2019-04-21T04:00:05.957Z,11.46
2019-04-21T04:01:21.379Z,11.35
2019-04-21T04:02:05.554Z,11.41
2019-04-21T04:03:07.174Z,11.39
2019-04-21T04:03:41.565Z,11.31
2019-04-21T04:04:13.178Z,11.26
2019-04-21T04:04:43.860Z,11.26
2019-04-21T04:05:34.261Z,11.21
2019-04-21T04:07:30.732Z,11.21
2019-04-21T04:08:20.254Z,11.21
2019-04-21T04:09:09.004Z,11.27
2019-04-21T04:09:51.647Z,11.36
2019-04-21T04:10:11.503Z,11.36
2019-04-21T04:11:02.459Z,11.35
2019-04-21T04:12:10.965Z,11.36
2019-04-21T04:12:50.053Z,11.35
2019-04-21T04:13:36.509Z,11.45
2019-04-21T04:15:38.026Z,11.57
2019-04-21T04:16:16.673Z,11.49
2019-04-21T04:17:11.387Z,11.51
2019-04-21T04:17:32.350Z,11.46
2019-04-21T04:18:16.182Z,11.49
2019-04-21T04:19:05.200Z,11.44
2019-04-21T04:19:53.340Z,11.35
2019-04-21T04:20:21.914Z,11.41
2019-04-21T04:20:50.949Z,11.35
2019-04-21T04:21:36.926Z,11.3
2019-04-21T04:22:19.222Z,11.23
2019-04-21T04:23:07.609Z,11.13
2019-04-21T04:23:44.830Z,11.19
2019-04-21T04:24:21.393Z,11.23
2019-04-21T04:25:04.192Z,11.16
2019-04-21T04:25:33.254Z,11.11
2019-04-21T04:26:21.854Z,11.13
2019-04-21T04:27:51.020Z,11.11
2019-04-21T05:07:20.980Z,12.51
2019-04-21T05:08:05.318Z,12.56
2019-04-21T05:08:52.193Z,12.81
2019-04-21T05:09:20.931Z,12.91
2019-04-21T05:10:47.116Z,13.22
2019-04-21T05:11:30.306Z,13.32
2019-04-21T05:11:55.198Z,13.38
2019-04-21T05:12:35.520Z,13.54
2019-04-21T05:13:25.765Z,13.66
2019-04-21T05:15:15.883Z,14.16
2019-04-21T05:16:00.067Z,14.21
2019-04-21T05:16:46.085Z,14.39
2019-04-21T05:17:28.431Z,14.36
2019-04-21T05:18:24.099Z,14.49
2019-04-21T05:18:52.345Z,14.6
2019-04-21T05:19:19.828Z,14.66
2019-04-21T05:20:08.248Z,14.78
2019-04-21T05:20:51.999Z,14.93
2019-04-21T05:22:42.120Z,15.16
2019-04-21T05:23:17.527Z,15.22
2019-04-21T05:23:55.273Z,15.2
2019-04-21T05:24:37.364Z,15.27
2019-04-21T05:25:13.039Z,15.33
2019-04-21T05:25:53.215Z,15.35
2019-04-21T05:26:36.999Z,15.48
2019-04-21T05:27:16.287Z,15.52
2019-04-21T05:27:56.162Z,15.49
2019-04-21T05:28:32.408Z,15.59
2019-04-21T05:29:12.888Z,15.6
2019-04-21T05:30:06.936Z,15.59
2019-04-21T05:30:48.627Z,15.56
2019-04-21T05:31:24.854Z,15.53
2019-04-21T05:32:07.451Z,15.41
2019-04-21T05:32:44.917Z,15.52
2019-04-21T05:33:26.809Z,15.43
2019-04-21T05:34:02.875Z,15.56
2019-04-21T05:34:41.028Z,15.6
2019-04-21T05:35:26.215Z,15.68
2019-04-21T05:36:02.930Z,15.76
2019-04-21T05:36:43.985Z,15.85
2019-04-21T05:37:24.340Z,15.92
2019-04-21T05:38:05.343Z,15.99
2019-04-21T05:38:41.600Z,16.03
2019-04-21T05:39:22.982Z,16.27
2019-04-21T05:40:00.113Z,16.36
2019-04-21T05:40:38.661Z,16.48
2019-04-21T05:41:20.488Z,16.51
2019-04-21T05:41:58.534Z,16.45
2019-04-21T05:42:45.284Z,16.63
2019-04-21T05:43:32.094Z,16.62
2019-04-21T05:44:09.475Z,16.88
2019-04-21T05:44:57.964Z,16.92
2019-04-21T05:45:33.216Z,16.92
2019-04-21T05:46:12.274Z,17.1
2019-04-21T05:47:07.527Z,17.15
2019-04-21T05:47:54.721Z,17.22
2019-04-21T05:48:51.687Z,17.38
2019-04-21T05:49:32.554Z,17.33
2019-04-21T05:50:11.243Z,17.14
2019-04-21T05:50:53.516Z,17.12
2019-04-21T05:51:30.167Z,17.14
2019-04-21T05:52:07.656Z,17.06
2019-04-21T05:52:49.640Z,17.15
2019-04-21T05:53:35.561Z,17.14
2019-04-21T05:54:22.669Z,17.25
2019-04-21T05:55:00.619Z,17.51
2019-04-21T05:55:43.391Z,17.62
2019-04-21T05:56:22.034Z,17.71
2019-04-21T05:56:59.636Z,17.84
2019-04-21T05:57:37.888Z,17.96
2019-04-21T05:58:17.780Z,18.01
2019-04-21T05:59:01.922Z,18.09
2019-04-21T05:59:43.052Z,18.07
2019-04-21T06:00:22.816Z,18.31
2019-04-21T06:01:14.378Z,18.36
2019-04-21T06:02:05.693Z,18.46
2019-04-21T06:02:22.044Z,18.46
2019-04-21T06:03:03.552Z,18.47
2019-04-21T06:04:38.135Z,18.59
2019-04-21T06:05:28.003Z,18.62
2019-04-21T06:05:50.882Z,18.79
2019-04-21T06:06:32.090Z,18.84
2019-04-21T06:07:11.870Z,18.94
2019-04-21T06:07:45.937Z,18.97
2019-04-21T06:08:24.973Z,19.1
2019-04-21T06:09:07.158Z,19.45
2019-04-21T06:09:55.267Z,19.45
2019-04-21T06:10:26.973Z,19.62
2019-04-21T06:11:12.757Z,19.67
2019-04-21T06:11:50.652Z,19.8
2019-04-21T06:12:26.596Z,19.92
2019-04-21T06:13:11.293Z,20.08
2019-04-21T06:13:54.795Z,20.16
2019-04-21T06:14:36.554Z,20.26
2019-04-21T06:15:13.391Z,20.33
2019-04-21T06:16:35.586Z,20.64
2019-04-21T06:17:18.696Z,20.73
2019-04-21T06:17:56.169Z,20.66
2019-04-21T06:18:41.956Z,20.75
2019-04-21T06:19:10.013Z,20.78
2019-04-21T06:19:55.572Z,20.97
2019-04-21T06:20:33.224Z,21.01
2019-04-21T06:21:15.754Z,21
2019-04-21T06:21:50.678Z,21.26
2019-04-21T06:22:28.682Z,21.24
2019-04-21T06:23:17.734Z,21.3
2019-04-21T06:23:56.800Z,21.34
2019-04-21T06:24:41.996Z,21.46
2019-04-21T06:25:40.800Z,21.45
2019-04-21T06:26:26.747Z,21.49
2019-04-21T06:27:22.321Z,21.46
2019-04-21T06:27:57.060Z,21.45
2019-04-21T06:29:23.116Z,21.16
2019-04-21T06:29:58.588Z,21.12
2019-04-21T06:30:48.473Z,21.06
2019-04-21T06:31:33.423Z,20.98
2019-04-21T06:32:20.198Z,21.05
2019-04-21T06:33:27.228Z,21.21
2019-04-21T06:34:03.390Z,21.3
2019-04-21T06:34:56.387Z,21.37
2019-04-21T06:35:27.914Z,21.49
2019-04-21T06:36:30.434Z,21.59
2019-04-21T06:36:46.830Z,21.53
2019-04-21T06:37:39.531Z,21.55
2019-04-21T06:38:03.455Z,21.58
2019-04-21T06:38:53.723Z,21.58
2019-04-21T06:39:29.893Z,21.59
2019-04-21T06:40:47.832Z,21.68
2019-04-21T06:42:02.301Z,21.75
2019-04-21T06:42:49.897Z,21.81
2019-04-21T06:43:32.791Z,21.99
2019-04-21T06:44:11.402Z,21.96
2019-04-21T06:44:57.047Z,22.04
2019-04-21T06:45:34.412Z,22.09
2019-04-21T06:46:08.535Z,22.14
2019-04-21T06:47:05.794Z,22.17
2019-04-21T06:47:34.892Z,22.26
2019-04-21T06:48:10.778Z,22.35
2019-04-21T06:48:54.892Z,22.44
2019-04-21T06:49:29.805Z,22.61
2019-04-21T06:50:14.409Z,22.6
2019-04-21T06:50:58.966Z,22.78
2019-04-21T06:51:30.377Z,22.79
2019-04-21T06:52:23.314Z,22.81
2019-04-21T06:52:53.594Z,22.74
2019-04-21T06:53:44.204Z,22.75
2019-04-21T06:54:14.118Z,22.66
2019-04-21T06:54:54.697Z,22.64
2019-04-21T06:55:31.907Z,22.64
2019-04-21T06:56:21.616Z,22.59
2019-04-21T06:57:08.509Z,22.76
2019-04-21T06:57:38.568Z,22.75
2019-04-21T06:58:17.926Z,22.76
2019-04-21T06:58:55.345Z,22.94
2019-04-21T06:59:31.511Z,22.91
2019-04-21T07:00:18.283Z,23
2019-04-21T07:00:53.395Z,22.96
2019-04-21T07:01:42.021Z,22.96
2019-04-21T07:02:35.941Z,22.93
2019-04-21T07:03:07.954Z,22.93
2019-04-21T07:03:40.051Z,22.94
2019-04-21T07:04:36.313Z,22.94
2019-04-21T07:05:07.211Z,23.04
2019-04-21T07:05:47.179Z,23.12
2019-04-21T07:06:22.043Z,23.06
2019-04-21T07:06:59.100Z,22.75
2019-04-21T07:07:43.031Z,22.48
2019-04-21T07:08:44.163Z,22.29
2019-04-21T07:09:15.087Z,22.12
2019-04-21T07:10:01.178Z,21.93
2019-04-21T07:10:25.853Z,21.98
2019-04-21T07:11:02.205Z,21.96
2019-04-21T07:11:42.029Z,21.98
2019-04-21T07:12:21.552Z,21.83
2019-04-21T07:13:03.025Z,21.64
2019-04-21T07:13:43.827Z,21.61
2019-04-21T07:15:03.125Z,21.38
2019-04-21T07:15:49.771Z,21.42
2019-04-21T07:16:31.434Z,21.28
2019-04-21T07:17:11.225Z,21.37
2019-04-21T07:17:49.720Z,21.46
2019-04-21T07:18:34.150Z,21.42
2019-04-21T07:19:55.057Z,21.45
2019-04-21T07:20:27.883Z,21.64
2019-04-21T07:21:12.590Z,21.73
2019-04-21T07:21:50.853Z,21.9
2019-04-21T07:22:36.733Z,22.02
2019-04-21T07:23:15.287Z,22.12
2019-04-21T07:23:58.759Z,22.02
2019-04-21T07:24:36.664Z,22.04
2019-04-21T07:25:13.513Z,21.98
2019-04-21T07:25:57.757Z,21.9
2019-04-21T07:26:36.156Z,21.85
2019-04-21T07:27:14.959Z,21.9
2019-04-21T07:27:57.802Z,21.91
2019-04-21T07:28:38.566Z,21.99
2019-04-21T07:29:20.293Z,21.91
2019-04-21T07:29:58.048Z,21.96
2019-04-21T07:30:58.856Z,21.81
2019-04-21T07:31:17.251Z,21.9
2019-04-21T07:32:39.864Z,21.85
2019-04-21T07:33:41.003Z,21.86
2019-04-21T07:34:21.132Z,21.93
2019-04-21T07:34:37.735Z,21.99
2019-04-21T07:35:20.599Z,21.94
2019-04-21T07:36:01.133Z,22.04
2019-04-21T07:36:50.737Z,21.93
2019-04-21T07:37:23.676Z,21.9
2019-04-21T07:38:02.510Z,21.82
2019-04-21T07:38:39.051Z,21.86
2019-04-21T07:39:21.996Z,21.96
2019-04-21T07:39:58.512Z,22.06
2019-04-21T07:40:41.550Z,22.29
2019-04-21T07:41:18.192Z,22.44
2019-04-21T07:42:04.378Z,22.51
2019-04-21T07:42:42.516Z,22.67
2019-04-21T07:43:23.203Z,22.63
2019-04-21T07:43:58.827Z,22.67
2019-04-21T07:44:39.023Z,22.78
2019-04-21T07:45:22.291Z,22.91
2019-04-21T07:46:06.309Z,23.09
2019-04-21T07:46:43.936Z,23.23
2019-04-21T07:47:26.250Z,23.23
2019-04-21T07:48:08.081Z,23.37
2019-04-21T07:48:49.065Z,23.47
2019-04-21T07:49:32.505Z,23.72
2019-04-21T07:50:14.214Z,23.75
2019-04-21T07:51:37.505Z,23.99
2019-04-21T07:52:17.935Z,24.05
2019-04-21T07:52:59.844Z,24.12
2019-04-21T07:53:40.139Z,24.19
2019-04-21T07:54:22.796Z,24.15
2019-04-21T07:55:05.303Z,24.21
2019-04-21T07:55:32.006Z,24.3
2019-04-21T07:56:05.916Z,24.31
2019-04-21T07:56:41.681Z,24.53
2019-04-21T07:57:35.039Z,24.63
2019-04-21T07:58:14.388Z,24.6
2019-04-21T07:59:01.489Z,24.66
2019-04-21T07:59:44.773Z,24.68
2019-04-21T08:00:35.662Z,24.77
2019-04-21T08:01:17.795Z,24.86
2019-04-21T08:01:35.055Z,24.89
2019-04-21T08:02:22.006Z,25.01
2019-04-21T08:03:00.019Z,25.02
2019-04-21T08:03:38.306Z,25.22
2019-04-21T08:05:07.285Z,25.26
2019-04-21T08:05:45.571Z,25.2
2019-04-21T08:06:26.510Z,25.42
2019-04-21T08:07:04.187Z,25.46
2019-04-21T08:08:20.596Z,25.6
2019-04-21T08:09:06.995Z,25.71
2019-04-21T08:09:46.042Z,25.75
2019-04-21T08:10:20.875Z,25.79
2019-04-21T08:11:01.198Z,25.86
2019-04-21T08:11:41.485Z,25.97
2019-04-21T08:12:23.961Z,25.93
2019-04-21T08:13:06.426Z,26.01
2019-04-21T08:13:44.719Z,25.83
2019-04-21T08:14:28.126Z,25.71
2019-04-21T08:15:15.377Z,25.69
2019-04-21T08:15:50.602Z,25.71
2019-04-21T08:16:29.634Z,25.75
2019-04-21T08:17:09.179Z,25.83
2019-04-21T08:17:46.702Z,26.13
2019-04-21T08:18:33.071Z,26.28
2019-04-21T08:19:12.546Z,26.23
2019-04-21T08:19:48.546Z,26.09
2019-04-21T08:20:28.279Z,25.93
2019-04-21T08:21:10.204Z,25.89
2019-04-21T08:21:57.225Z,25.86
2019-04-21T08:22:39.410Z,25.81
2019-04-21T08:23:18.448Z,25.89
2019-04-21T08:23:53.995Z,26.01
2019-04-21T08:24:34.529Z,25.82
2019-04-21T08:25:14.587Z,25.89
2019-04-21T08:26:04.378Z,25.9
2019-04-21T08:26:41.279Z,26.09
2019-04-21T08:27:17.172Z,26.29
2019-04-21T08:27:58.263Z,26.34
2019-04-21T08:28:38.998Z,26.41
2019-04-21T08:29:25.410Z,26.64
2019-04-21T08:29:57.849Z,26.64
2019-04-21T08:30:42.355Z,26.79
2019-04-21T08:31:20.873Z,26.84
2019-04-21T08:32:07.665Z,26.96
2019-04-21T08:34:07.539Z,27.15
2019-04-21T08:34:42.758Z,27.31
2019-04-21T08:35:39.793Z,27.52
2019-04-21T08:36:39.804Z,27.87
2019-04-21T08:37:23.947Z,27.93
2019-04-21T08:38:00.718Z,28.02
2019-04-21T08:38:47.721Z,28.08
2019-04-21T08:39:28.691Z,28.13
2019-04-21T08:40:26.104Z,28.14
2019-04-21T08:40:40.576Z,27.98
2019-04-21T08:41:22.597Z,27.93
2019-04-21T08:42:03.124Z,27.88
2019-04-21T08:42:44.525Z,27.59
2019-04-21T08:43:35.373Z,27.53
2019-04-21T08:44:09.132Z,27.42
2019-04-21T08:44:52.222Z,27.39
2019-04-21T08:46:12.435Z,27.42
2019-04-21T08:46:52.238Z,27.48
2019-04-21T08:47:32.921Z,27.2
2019-04-21T08:48:09.998Z,27.08
2019-04-21T08:48:55.174Z,27.06
2019-04-21T08:49:34.588Z,27.21
2019-04-21T08:50:14.736Z,27.24
2019-04-21T08:51:03.699Z,27.39
2019-04-21T08:51:53.475Z,27.2
2019-04-21T08:52:56.086Z,27.15
2019-04-21T08:53:40.877Z,27.4
2019-04-21T08:54:21.356Z,27.43
2019-04-21T08:54:55.048Z,27.65
2019-04-21T08:55:39.463Z,27.83
2019-04-21T08:56:21.117Z,27.95
2019-04-21T08:57:01.016Z,27.95
2019-04-21T08:57:50.299Z,27.63
2019-04-21T08:58:28.638Z,27.46
2019-04-21T08:59:02.009Z,27.24
2019-04-21T08:59:43.340Z,27.15
2019-04-21T09:00:25.846Z,26.96
2019-04-21T09:01:08.562Z,26.86
2019-04-21T09:01:42.569Z,26.91
2019-04-21T09:02:29.083Z,26.94
2019-04-21T09:03:06.258Z,27.15
2019-04-21T09:03:42.840Z,27.35
2019-04-21T09:04:23.050Z,27.5
2019-04-21T09:05:04.444Z,27.8
2019-04-21T09:05:42.289Z,27.96
2019-04-21T09:06:31.277Z,27.99
2019-04-21T09:07:25.268Z,27.88
2019-04-21T09:07:50.722Z,27.87
2019-04-21T09:08:31.142Z,28.01
2019-04-21T09:09:10.632Z,28.2
2019-04-21T09:09:46.590Z,28.24
2019-04-21T09:10:27.945Z,28.05
2019-04-21T09:11:05.157Z,28.01
2019-04-21T09:11:47.027Z,28.03
2019-04-21T09:12:27.875Z,27.93
2019-04-21T09:13:09.942Z,27.61
2019-04-21T09:13:47.514Z,27.4
2019-04-21T09:14:29.979Z,27.31
2019-04-21T09:15:13.447Z,27.27
2019-04-21T09:15:47.026Z,27.38
2019-04-21T09:16:30.507Z,27.39
2019-04-21T09:17:06.345Z,27.5
2019-04-21T09:17:44.398Z,27.5
2019-04-21T09:18:26.449Z,27.48
2019-04-21T09:19:14.019Z,27.43
2019-04-21T09:19:56.271Z,27.38
2019-04-21T09:20:38.442Z,27.38
2019-04-21T09:21:19.230Z,27.49
2019-04-21T09:21:54.395Z,27.5
2019-04-21T09:22:34.272Z,27.62
2019-04-21T09:23:19.057Z,27.69
2019-04-21T09:23:55.565Z,27.63
2019-04-21T09:24:40.683Z,27.83
2019-04-21T09:25:26.366Z,27.9
2019-04-21T09:25:57.163Z,27.95
2019-04-21T09:26:33.818Z,27.99
2019-04-21T09:27:19.687Z,28.02
2019-04-21T09:28:00.361Z,28.08
2019-04-21T09:28:39.285Z,28.05
2019-04-21T09:29:15.787Z,28.21
2019-04-21T09:29:52.092Z,28.15
2019-04-21T09:30:26.453Z,28.06
2019-04-21T09:31:08.502Z,27.93
2019-04-21T09:31:48.455Z,27.96
2019-04-21T09:32:31.312Z,28.06
2019-04-21T09:33:09.180Z,28.18
2019-04-21T09:33:51.941Z,28.36
2019-04-21T09:34:36.050Z,28.38
2019-04-21T09:35:12.820Z,28.48
2019-04-21T09:35:56.268Z,28.51
2019-04-21T09:36:38.796Z,28.6
2019-04-21T09:37:23.935Z,28.51
2019-04-21T09:37:58.732Z,28.7
2019-04-21T09:38:36.985Z,28.87
2019-04-21T09:39:16.469Z,29.03
2019-04-21T09:39:55.856Z,29.29
2019-04-21T09:40:37.067Z,29.48
2019-04-21T09:41:17.412Z,29.66
2019-04-21T09:41:57.583Z,29.58
2019-04-21T09:42:40.043Z,29.67
2019-04-21T09:43:23.676Z,29.69
2019-04-21T09:43:57.210Z,29.73
2019-04-21T09:44:40.077Z,29.71
2019-04-21T09:45:17.641Z,29.63
2019-04-21T09:45:56.767Z,29.64
2019-04-21T09:46:44.066Z,29.64
2019-04-21T09:47:21.567Z,29.69
2019-04-21T09:48:04.305Z,29.69
2019-04-21T09:48:49.491Z,29.74
2019-04-21T09:49:22.401Z,29.86
2019-04-21T09:50:01.673Z,29.71
2019-04-21T09:50:40.013Z,29.54
2019-04-21T09:51:20.175Z,29.6
2019-04-21T09:52:00.195Z,29.6
2019-04-21T09:52:47.571Z,29.67
2019-04-21T09:53:29.140Z,29.79
2019-04-21T09:54:07.980Z,29.74
2019-04-21T09:54:51.935Z,29.86
2019-04-21T09:55:24.937Z,29.92
2019-04-21T09:56:05.370Z,30.08
2019-04-21T09:56:50.955Z,30.19
2019-04-21T09:57:33.379Z,30.15
2019-04-21T09:58:13.341Z,30.04
2019-04-21T09:58:49.511Z,29.95
2019-04-21T09:59:29.875Z,29.7
2019-04-21T10:00:12.987Z,29.86
2019-04-21T10:00:57.207Z,30.03
2019-04-21T10:01:33.137Z,30.15
2019-04-21T10:02:14.128Z,30.1
2019-04-21T10:02:55.281Z,30.21
2019-04-21T10:03:35.845Z,30.22
2019-04-21T10:04:07.844Z,30.32
2019-04-21T10:04:48.297Z,30.4
2019-04-21T10:05:29.717Z,30.64
2019-04-21T10:06:09.005Z,30.73
2019-04-21T10:06:49.705Z,30.72
2019-04-21T10:07:35.353Z,30.78